Woodrow, Arkansas
Current Conditions -  °F | °C
As of 4:55 PM on Monday 24 Nov 2014 (Local Time) from KCCA Reporting Station
Clear Clear  
Wind Chill: 54°   Ceiling: Unl
Heat Index: 54°   Visibility: 10mi
Dew Point: 28°   Wind: 7mph
Humidity: 38%   Direction: 220°SW
Pressure: 29.95"   Gusts: NA
Location:  35.6931°N, 92.1518°W
Report Text: KCCA 242255Z AUTO 22006KT 10SM CLR 12/M02 A2995 RMK AO2
Loading
Personal Weather Stations






























Interactive Weather Map New forecast layout! Learn more

10-Day Weather Forecast

Advertisements
Track Severe Weather on mobile